sensor_id;sensor_type;location;lat;lon;timestamp;pressure;altitude;pressure_sealevel;temperature
65765;BMP180;52915;53.718;19.946;2023-02-18T00:01:37;98755.00;;;7.20
65765;BMP180;52915;53.718;19.946;2023-02-18T00:06:40;98758.00;;;7.26
65765;BMP180;52915;53.718;19.946;2023-02-18T00:11:44;98771.20;;;7.20
65765;BMP180;52915;53.718;19.946;2023-02-18T00:16:47;98764.40;;;7.20
65765;BMP180;52915;53.718;19.946;2023-02-18T00:21:51;98772.60;;;7.30
65765;BMP180;52915;53.718;19.946;2023-02-18T00:26:56;98766.60;;;7.30
65765;BMP180;52915;53.718;19.946;2023-02-18T00:31:59;98776.80;;;7.40
65765;BMP180;52915;53.718;19.946;2023-02-18T00:37:03;98793.60;;;7.40
65765;BMP180;52915;53.718;19.946;2023-02-18T00:42:07;98793.20;;;7.50
65765;BMP180;52915;53.718;19.946;2023-02-18T00:47:11;98775.80;;;7.50
65765;BMP180;52915;53.718;19.946;2023-02-18T00:52:14;98777.60;;;7.50
65765;BMP180;52915;53.718;19.946;2023-02-18T00:57:18;98784.80;;;7.60
65765;BMP180;52915;53.718;19.946;2023-02-18T01:02:25;98777.80;;;7.50
65765;BMP180;52915;53.718;19.946;2023-02-18T01:07:29;98783.20;;;7.50
65765;BMP180;52915;53.718;19.946;2023-02-18T01:12:32;98779.00;;;7.50
65765;BMP180;52915;53.718;19.946;2023-02-18T01:17:36;98770.80;;;7.60
65765;BMP180;52915;53.718;19.946;2023-02-18T01:22:40;98778.80;;;7.50
65765;BMP180;52915;53.718;19.946;2023-02-18T01:27:44;98795.20;;;7.40
65765;BMP180;52915;53.718;19.946;2023-02-18T01:54:44;98813.20;;;7.30
65765;BMP180;52915;53.718;19.946;2023-02-18T01:59:58;98805.40;;;7.20
65765;BMP180;52915;53.718;19.946;2023-02-18T02:05:03;98794.40;;;7.20
65765;BMP180;52915;53.718;19.946;2023-02-18T02:10:08;98795.40;;;7.30
65765;BMP180;52915;53.718;19.946;2023-02-18T02:16:07;98799.80;;;7.22
65765;BMP180;52915;53.718;19.946;2023-02-18T02:32:29;98817.00;;;7.26
65765;BMP180;52915;53.718;19.946;2023-02-18T02:37:56;98809.20;;;7.30
65765;BMP180;52915;53.718;19.946;2023-02-18T02:54:21;98845.60;;;7.20
65765;BMP180;52915;53.718;19.946;2023-02-18T02:59:26;98852.40;;;7.20
65765;BMP180;52915;53.718;19.946;2023-02-18T03:27:27;98893.60;;;7.00
65765;BMP180;52915;53.718;19.946;2023-02-18T03:32:33;98877.60;;;7.00
65765;BMP180;52915;53.718;19.946;2023-02-18T03:37:47;98887.40;;;7.00
65765;BMP180;52915;53.718;19.946;2023-02-18T03:42:52;98890.00;;;6.90
65765;BMP180;52915;53.718;19.946;2023-02-18T03:47:56;98876.00;;;6.90
65765;BMP180;52915;53.718;19.946;2023-02-18T03:53:00;98878.00;;;6.90
65765;BMP180;52915;53.718;19.946;2023-02-18T03:58:03;98896.20;;;6.90
65765;BMP180;52915;53.718;19.946;2023-02-18T04:03:07;98901.80;;;6.82
65765;BMP180;52915;53.718;19.946;2023-02-18T04:08:11;98900.80;;;6.80
65765;BMP180;52915;53.718;19.946;2023-02-18T04:13:15;98912.20;;;6.80
65765;BMP180;52915;53.718;19.946;2023-02-18T04:18:20;98907.40;;;6.80
65765;BMP180;52915;53.718;19.946;2023-02-18T04:23:24;98914.00;;;6.80
65765;BMP180;52915;53.718;19.946;2023-02-18T04:28:29;98922.60;;;6.72
65765;BMP180;52915;53.718;19.946;2023-02-18T04:33:32;98919.60;;;6.70
65765;BMP180;52915;53.718;19.946;2023-02-18T04:39:01;98913.80;;;6.68
65765;BMP180;52915;53.718;19.946;2023-02-18T04:44:05;98919.60;;;6.60
65765;BMP180;52915;53.718;19.946;2023-02-18T04:49:08;98929.00;;;6.60
65765;BMP180;52915;53.718;19.946;2023-02-18T04:54:12;98934.40;;;6.50
65765;BMP180;52915;53.718;19.946;2023-02-18T04:59:16;98938.80;;;6.50
65765;BMP180;52915;53.718;19.946;2023-02-18T05:04:47;98939.60;;;6.50
65765;BMP180;52915;53.718;19.946;2023-02-18T05:09:53;98943.20;;;6.50
65765;BMP180;52915;53.718;19.946;2023-02-18T05:14:57;98943.60;;;6.50
65765;BMP180;52915;53.718;19.946;2023-02-18T05:20:03;98958.40;;;6.30
65765;BMP180;52915;53.718;19.946;2023-02-18T05:32:09;98976.00;;;6.40
65765;BMP180;52915;53.718;19.946;2023-02-18T05:37:13;98980.80;;;6.30
65765;BMP180;52915;53.718;19.946;2023-02-18T05:42:17;98992.00;;;6.20
65765;BMP180;52915;53.718;19.946;2023-02-18T05:48:12;98991.80;;;6.20
65765;BMP180;52915;53.718;19.946;2023-02-18T06:03:36;99020.60;;;6.20
65765;BMP180;52915;53.718;19.946;2023-02-18T06:08:39;99013.40;;;6.20
65765;BMP180;52915;53.718;19.946;2023-02-18T06:13:49;99026.80;;;6.20
65765;BMP180;52915;53.718;19.946;2023-02-18T06:40:46;99061.80;;;6.30
65765;BMP180;52915;53.718;19.946;2023-02-18T06:46:15;99061.00;;;6.30
65765;BMP180;52915;53.718;19.946;2023-02-18T06:51:19;99073.60;;;6.34
65765;BMP180;52915;53.718;19.946;2023-02-18T06:56:23;99077.60;;;6.40
65765;BMP180;52915;53.718;19.946;2023-02-18T07:01:27;99073.20;;;6.40
65765;BMP180;52915;53.718;19.946;2023-02-18T07:06:56;99086.00;;;6.40
65765;BMP180;52915;53.718;19.946;2023-02-18T07:12:00;99087.00;;;6.50
65765;BMP180;52915;53.718;19.946;2023-02-18T07:17:04;99083.60;;;6.60
65765;BMP180;52915;53.718;19.946;2023-02-18T07:22:08;99097.40;;;6.70
65765;BMP180;52915;53.718;19.946;2023-02-18T07:27:11;99093.80;;;6.80
65765;BMP180;52915;53.718;19.946;2023-02-18T07:38:35;99100.00;;;7.20
65765;BMP180;52915;53.718;19.946;2023-02-18T07:50:44;99118.00;;;7.40
65765;BMP180;52915;53.718;19.946;2023-02-18T07:55:48;99118.00;;;7.30
65765;BMP180;52915;53.718;19.946;2023-02-18T08:00:53;99121.20;;;7.20
65765;BMP180;52915;53.718;19.946;2023-02-18T08:06:49;99134.00;;;7.40
65765;BMP180;52915;53.718;19.946;2023-02-18T08:11:53;99131.40;;;7.30
65765;BMP180;52915;53.718;19.946;2023-02-18T08:16:57;99152.20;;;7.40
65765;BMP180;52915;53.718;19.946;2023-02-18T08:22:01;99154.00;;;7.40
65765;BMP180;52915;53.718;19.946;2023-02-18T08:40:20;99164.40;;;7.40
65765;BMP180;52915;53.718;19.946;2023-02-18T08:45:24;99164.80;;;7.40
65765;BMP180;52915;53.718;19.946;2023-02-18T09:04:00;99172.20;;;8.90
65765;BMP180;52915;53.718;19.946;2023-02-18T09:09:54;99177.20;;;8.90
65765;BMP180;52915;53.718;19.946;2023-02-18T09:15:24;99182.00;;;8.80
65765;BMP180;52915;53.718;19.946;2023-02-18T09:20:29;99185.60;;;8.70
65765;BMP180;52915;53.718;19.946;2023-02-18T09:25:33;99196.40;;;9.00
65765;BMP180;52915;53.718;19.946;2023-02-18T09:30:38;99202.00;;;9.10
65765;BMP180;52915;53.718;19.946;2023-02-18T09:36:00;99211.40;;;9.22
65765;BMP180;52915;53.718;19.946;2023-02-18T09:41:14;99220.40;;;9.30
65765;BMP180;52915;53.718;19.946;2023-02-18T09:46:30;99213.80;;;9.50
65765;BMP180;52915;53.718;19.946;2023-02-18T09:51:35;99214.60;;;9.60
65765;BMP180;52915;53.718;19.946;2023-02-18T09:56:40;99230.80;;;9.34
65765;BMP180;52915;53.718;19.946;2023-02-18T10:01:48;99236.80;;;9.10
65765;BMP180;52915;53.718;19.946;2023-02-18T10:06:56;99249.40;;;8.82
65765;BMP180;52915;53.718;19.946;2023-02-18T10:12:28;99247.00;;;8.70
65765;BMP180;52915;53.718;19.946;2023-02-18T10:25:02;99253.80;;;8.40
65765;BMP180;52915;53.718;19.946;2023-02-18T10:40:59;99252.40;;;8.36
65765;BMP180;52915;53.718;19.946;2023-02-18T10:46:21;99259.60;;;8.40
65765;BMP180;52915;53.718;19.946;2023-02-18T10:51:33;99258.80;;;8.40
65765;BMP180;52915;53.718;19.946;2023-02-18T10:56:50;99257.40;;;8.66
65765;BMP180;52915;53.718;19.946;2023-02-18T11:01:58;99258.40;;;8.62
65765;BMP180;52915;53.718;19.946;2023-02-18T11:07:12;99253.00;;;8.58
65765;BMP180;52915;53.718;19.946;2023-02-18T11:47:36;99240.20;;;8.30
65765;BMP180;52915;53.718;19.946;2023-02-18T11:52:47;99239.20;;;8.60
65765;BMP180;52915;53.718;19.946;2023-02-18T11:58:03;99228.80;;;9.44
65765;BMP180;52915;53.718;19.946;2023-02-18T12:30:49;99225.80;;;8.60
65765;BMP180;52915;53.718;19.946;2023-02-18T12:42:02;99223.20;;;8.40
65765;BMP180;52915;53.718;19.946;2023-02-18T12:47:34;99209.80;;;8.30
65765;BMP180;52915;53.718;19.946;2023-02-18T13:10:16;99194.60;;;7.90
65765;BMP180;52915;53.718;19.946;2023-02-18T13:21:27;99193.60;;;7.90
65765;BMP180;52915;53.718;19.946;2023-02-18T13:26:35;99193.80;;;7.90
65765;BMP180;52915;53.718;19.946;2023-02-18T13:32:37;99187.80;;;8.00
65765;BMP180;52915;53.718;19.946;2023-02-18T14:42:35;99165.80;;;7.60
65765;BMP180;52915;53.718;19.946;2023-02-18T14:53:23;99178.20;;;7.60
65765;BMP180;52915;53.718;19.946;2023-02-18T14:58:37;99170.60;;;7.50
65765;BMP180;52915;53.718;19.946;2023-02-18T15:03:44;99165.00;;;7.40
65765;BMP180;52915;53.718;19.946;2023-02-18T15:08:54;99162.00;;;7.32
65765;BMP180;52915;53.718;19.946;2023-02-18T15:14:37;99154.20;;;7.38
65765;BMP180;52915;53.718;19.946;2023-02-18T15:19:53;99151.20;;;7.38
65765;BMP180;52915;53.718;19.946;2023-02-18T15:31:37;99155.80;;;7.30
65765;BMP180;52915;53.718;19.946;2023-02-18T15:36:49;99155.20;;;7.30
65765;BMP180;52915;53.718;19.946;2023-02-18T15:50:06;99158.20;;;7.20
65765;BMP180;52915;53.718;19.946;2023-02-18T16:03:11;99161.20;;;7.10
65765;BMP180;52915;53.718;19.946;2023-02-18T16:08:26;99164.60;;;7.00
65765;BMP180;52915;53.718;19.946;2023-02-18T16:18:30;99165.40;;;6.92
65765;BMP180;52915;53.718;19.946;2023-02-18T16:23:50;99164.00;;;6.90
65765;BMP180;52915;53.718;19.946;2023-02-18T16:43:15;99173.60;;;6.70
65765;BMP180;52915;53.718;19.946;2023-02-18T16:49:11;99179.00;;;6.70
65765;BMP180;52915;53.718;19.946;2023-02-18T16:54:16;99189.60;;;6.60
65765;BMP180;52915;53.718;19.946;2023-02-18T16:59:20;99195.60;;;6.54
65765;BMP180;52915;53.718;19.946;2023-02-18T17:04:24;99199.00;;;6.60
65765;BMP180;52915;53.718;19.946;2023-02-18T17:09:30;99202.00;;;6.50
65765;BMP180;52915;53.718;19.946;2023-02-18T17:14:34;99206.00;;;6.58
65765;BMP180;52915;53.718;19.946;2023-02-18T17:19:44;99211.20;;;6.60
65765;BMP180;52915;53.718;19.946;2023-02-18T17:24:48;99217.20;;;6.54
65765;BMP180;52915;53.718;19.946;2023-02-18T17:29:52;99222.60;;;6.50
65765;BMP180;52915;53.718;19.946;2023-02-18T17:34:57;99230.80;;;6.58
65765;BMP180;52915;53.718;19.946;2023-02-18T17:40:11;99231.40;;;6.50
65765;BMP180;52915;53.718;19.946;2023-02-18T17:45:32;99236.00;;;6.40
65765;BMP180;52915;53.718;19.946;2023-02-18T17:50:37;99246.20;;;6.40
65765;BMP180;52915;53.718;19.946;2023-02-18T17:55:43;99259.20;;;6.40
65765;BMP180;52915;53.718;19.946;2023-02-18T18:00:55;99271.20;;;6.30
65765;BMP180;52915;53.718;19.946;2023-02-18T18:05:59;99273.20;;;6.20
65765;BMP180;52915;53.718;19.946;2023-02-18T18:11:05;99280.00;;;6.22
65765;BMP180;52915;53.718;19.946;2023-02-18T18:16:16;99290.00;;;6.10
65765;BMP180;52915;53.718;19.946;2023-02-18T18:21:33;99303.20;;;6.00
65765;BMP180;52915;53.718;19.946;2023-02-18T18:26:38;99304.40;;;6.00
65765;BMP180;52915;53.718;19.946;2023-02-18T18:31:42;99308.60;;;5.88
65765;BMP180;52915;53.718;19.946;2023-02-18T18:36:49;99321.20;;;5.80
65765;BMP180;52915;53.718;19.946;2023-02-18T18:41:53;99326.60;;;5.64
65765;BMP180;52915;53.718;19.946;2023-02-18T18:46:58;99326.60;;;5.50
65765;BMP180;52915;53.718;19.946;2023-02-18T18:52:15;99334.00;;;5.50
65765;BMP180;52915;53.718;19.946;2023-02-18T18:57:24;99340.80;;;5.50
65765;BMP180;52915;53.718;19.946;2023-02-18T19:02:37;99338.80;;;5.40
65765;BMP180;52915;53.718;19.946;2023-02-18T19:07:49;99352.40;;;5.50
65765;BMP180;52915;53.718;19.946;2023-02-18T19:13:36;99345.80;;;5.40
65765;BMP180;52915;53.718;19.946;2023-02-18T19:18:43;99357.60;;;5.30
65765;BMP180;52915;53.718;19.946;2023-02-18T19:30:57;99362.40;;;5.20
65765;BMP180;52915;53.718;19.946;2023-02-18T19:36:09;99368.20;;;5.24
65765;BMP180;52915;53.718;19.946;2023-02-18T19:41:15;99366.40;;;5.20
65765;BMP180;52915;53.718;19.946;2023-02-18T19:46:22;99376.00;;;5.20
65765;BMP180;52915;53.718;19.946;2023-02-18T19:51:26;99375.40;;;5.20
65765;BMP180;52915;53.718;19.946;2023-02-18T19:56:30;99372.20;;;5.10
65765;BMP180;52915;53.718;19.946;2023-02-18T20:01:34;99381.40;;;5.10
65765;BMP180;52915;53.718;19.946;2023-02-18T20:07:04;99388.20;;;5.10
65765;BMP180;52915;53.718;19.946;2023-02-18T20:12:08;99380.40;;;4.90
65765;BMP180;52915;53.718;19.946;2023-02-18T20:17:15;99380.40;;;4.90
65765;BMP180;52915;53.718;19.946;2023-02-18T20:22:19;99398.00;;;4.82
65765;BMP180;52915;53.718;19.946;2023-02-18T20:27:23;99404.00;;;4.70
65765;BMP180;52915;53.718;19.946;2023-02-18T20:32:27;99420.40;;;4.80
65765;BMP180;52915;53.718;19.946;2023-02-18T20:37:31;99411.00;;;4.90
65765;BMP180;52915;53.718;19.946;2023-02-18T20:42:36;99425.60;;;4.70
65765;BMP180;52915;53.718;19.946;2023-02-18T20:47:41;99428.20;;;4.60
65765;BMP180;52915;53.718;19.946;2023-02-18T20:52:45;99430.80;;;4.70
65765;BMP180;52915;53.718;19.946;2023-02-18T20:57:49;99437.40;;;4.66
65765;BMP180;52915;53.718;19.946;2023-02-18T21:02:53;99447.40;;;4.64
65765;BMP180;52915;53.718;19.946;2023-02-18T21:07:57;99459.40;;;4.80
65765;BMP180;52915;53.718;19.946;2023-02-18T21:13:01;99464.40;;;4.80
65765;BMP180;52915;53.718;19.946;2023-02-18T21:18:05;99464.80;;;4.90
65765;BMP180;52915;53.718;19.946;2023-02-18T21:23:10;99476.80;;;4.90
65765;BMP180;52915;53.718;19.946;2023-02-18T21:28:40;99472.20;;;4.76
65765;BMP180;52915;53.718;19.946;2023-02-18T21:34:11;99478.20;;;4.80
65765;BMP180;52915;53.718;19.946;2023-02-18T21:39:15;99484.00;;;4.60
65765;BMP180;52915;53.718;19.946;2023-02-18T21:44:19;99483.20;;;4.50
65765;BMP180;52915;53.718;19.946;2023-02-18T21:49:32;99500.20;;;4.50
65765;BMP180;52915;53.718;19.946;2023-02-18T21:54:39;99503.60;;;4.42
65765;BMP180;52915;53.718;19.946;2023-02-18T22:00:34;99499.20;;;4.58
65765;BMP180;52915;53.718;19.946;2023-02-18T22:05:39;99499.00;;;4.50
65765;BMP180;52915;53.718;19.946;2023-02-18T22:10:44;99490.40;;;4.50
65765;BMP180;52915;53.718;19.946;2023-02-18T22:15:56;99495.80;;;4.60
65765;BMP180;52915;53.718;19.946;2023-02-18T22:21:07;99495.60;;;4.40
65765;BMP180;52915;53.718;19.946;2023-02-18T22:26:12;99487.40;;;4.30
65765;BMP180;52915;53.718;19.946;2023-02-18T22:31:16;99496.40;;;4.38
65765;BMP180;52915;53.718;19.946;2023-02-18T22:36:22;99499.80;;;4.20
65765;BMP180;52915;53.718;19.946;2023-02-18T22:41:29;99519.80;;;4.00
65765;BMP180;52915;53.718;19.946;2023-02-18T22:46:58;99521.60;;;4.04
65765;BMP180;52915;53.718;19.946;2023-02-18T22:53:01;99510.40;;;3.90
65765;BMP180;52915;53.718;19.946;2023-02-18T22:58:05;99514.00;;;3.80
65765;BMP180;52915;53.718;19.946;2023-02-18T23:03:08;99520.20;;;3.80
65765;BMP180;52915;53.718;19.946;2023-02-18T23:08:12;99512.00;;;3.70
65765;BMP180;52915;53.718;19.946;2023-02-18T23:13:16;99518.00;;;3.70
65765;BMP180;52915;53.718;19.946;2023-02-18T23:18:20;99513.80;;;3.70
65765;BMP180;52915;53.718;19.946;2023-02-18T23:23:24;99512.20;;;3.58
65765;BMP180;52915;53.718;19.946;2023-02-18T23:28:27;99520.00;;;3.60
65765;BMP180;52915;53.718;19.946;2023-02-18T23:33:31;99513.00;;;3.60
65765;BMP180;52915;53.718;19.946;2023-02-18T23:38:35;99511.20;;;3.50
65765;BMP180;52915;53.718;19.946;2023-02-18T23:50:46;99533.40;;;3.50
65765;BMP180;52915;53.718;19.946;2023-02-18T23:56:04;99522.60;;;3.50
